Stites, Idaho
Current Conditions -  °F | °C
As of 9:35 AM on Monday 22 Dec 2014 (Local Time) from KGIC Reporting Station
Scattered Clouds Scattered Clouds  
Wind Chill: 30°   Ceiling: Unl
Heat Index: 37°   Visibility: 10mi
Dew Point: 33°   Wind: 10mph
Humidity: 84%   Direction: 260°W
Pressure: 30.18"   Gusts: NA
Location:  46.09°N, 115.98°W
Report Text: KGIC 221735Z AUTO 26009KT 10SM SCT043 03/01 A3018 RMK AO1 T00300006
Loading
Personal Weather Stations






























Interactive Weather Map New forecast layout! Learn more

10-Day Weather Forecast

Advertisements
Track Severe Weather on mobile